sensor_id;sensor_type;location;lat;lon;timestamp;pressure;altitude;pressure_sealevel;temperature;humidity
76653;BME280;65563;45.970;12.680;2022-12-15T00:00:37;100245.00;;;1.26;71.04
76653;BME280;65563;45.970;12.680;2022-12-15T00:01:38;100237.84;;;1.37;71.00
76653;BME280;65563;45.970;12.680;2022-12-15T00:02:38;100240.16;;;1.40;71.16
76653;BME280;65563;45.970;12.680;2022-12-15T00:03:38;100233.63;;;1.54;70.16
76653;BME280;65563;45.970;12.680;2022-12-15T00:04:38;100234.69;;;1.61;69.84
76653;BME280;65563;45.970;12.680;2022-12-15T00:05:38;100231.00;;;1.54;70.53
76653;BME280;65563;45.970;12.680;2022-12-15T00:06:39;100228.81;;;1.59;69.54
76653;BME280;65563;45.970;12.680;2022-12-15T00:07:39;100232.81;;;1.54;69.75
76653;BME280;65563;45.970;12.680;2022-12-15T00:08:39;100234.50;;;1.45;69.98
76653;BME280;65563;45.970;12.680;2022-12-15T00:09:39;100237.78;;;1.47;70.89
76653;BME280;65563;45.970;12.680;2022-12-15T00:10:39;100243.44;;;1.42;70.52
76653;BME280;65563;45.970;12.680;2022-12-15T00:11:39;100244.16;;;1.45;70.72
76653;BME280;65563;45.970;12.680;2022-12-15T00:12:40;100248.56;;;1.34;71.31
76653;BME280;65563;45.970;12.680;2022-12-15T00:13:40;100241.66;;;1.43;71.46
76653;BME280;65563;45.970;12.680;2022-12-15T00:14:40;100247.44;;;1.37;70.87
76653;BME280;65563;45.970;12.680;2022-12-15T00:15:40;100245.69;;;1.37;71.44
76653;BME280;65563;45.970;12.680;2022-12-15T00:16:40;100248.41;;;1.36;71.81
76653;BME280;65563;45.970;12.680;2022-12-15T00:17:40;100252.69;;;1.37;71.51
76653;BME280;65563;45.970;12.680;2022-12-15T00:18:41;100244.84;;;1.37;71.91
76653;BME280;65563;45.970;12.680;2022-12-15T00:19:41;100249.28;;;1.27;71.73
76653;BME280;65563;45.970;12.680;2022-12-15T00:20:41;100250.66;;;1.31;72.22
76653;BME280;65563;45.970;12.680;2022-12-15T00:21:41;100261.38;;;1.37;72.21
76653;BME280;65563;45.970;12.680;2022-12-15T00:22:41;100261.38;;;1.28;71.74
76653;BME280;65563;45.970;12.680;2022-12-15T00:23:41;100263.63;;;1.03;72.67
76653;BME280;65563;45.970;12.680;2022-12-15T00:24:41;100268.31;;;0.90;72.85
76653;BME280;65563;45.970;12.680;2022-12-15T00:25:42;100271.19;;;0.97;73.30
76653;BME280;65563;45.970;12.680;2022-12-15T00:26:42;100277.13;;;0.89;73.27
76653;BME280;65563;45.970;12.680;2022-12-15T00:27:42;100275.47;;;0.88;73.80
76653;BME280;65563;45.970;12.680;2022-12-15T00:28:42;100282.88;;;0.83;73.59
76653;BME280;65563;45.970;12.680;2022-12-15T00:29:42;100282.19;;;0.81;74.19
76653;BME280;65563;45.970;12.680;2022-12-15T00:30:43;100281.66;;;0.67;74.03
76653;BME280;65563;45.970;12.680;2022-12-15T00:31:43;100280.41;;;0.71;74.26
76653;BME280;65563;45.970;12.680;2022-12-15T00:32:43;100279.44;;;0.73;74.06
76653;BME280;65563;45.970;12.680;2022-12-15T00:33:43;100278.09;;;0.78;73.88
76653;BME280;65563;45.970;12.680;2022-12-15T00:34:43;100275.47;;;0.88;73.32
76653;BME280;65563;45.970;12.680;2022-12-15T00:35:43;100271.47;;;0.93;73.08
76653;BME280;65563;45.970;12.680;2022-12-15T00:36:44;100276.84;;;0.92;72.44
76653;BME280;65563;45.970;12.680;2022-12-15T00:37:44;100276.56;;;0.95;72.45
76653;BME280;65563;45.970;12.680;2022-12-15T00:38:44;100285.91;;;1.07;72.15
76653;BME280;65563;45.970;12.680;2022-12-15T00:39:45;100286.59;;;1.00;72.50
76653;BME280;65563;45.970;12.680;2022-12-15T00:40:45;100284.81;;;1.10;72.18
76653;BME280;65563;45.970;12.680;2022-12-15T00:41:45;100292.25;;;0.95;72.79
76653;BME280;65563;45.970;12.680;2022-12-15T00:42:45;100294.44;;;0.90;72.87
76653;BME280;65563;45.970;12.680;2022-12-15T00:43:46;100295.16;;;0.92;73.24
76653;BME280;65563;45.970;12.680;2022-12-15T00:44:46;100286.72;;;0.98;73.00
76653;BME280;65563;45.970;12.680;2022-12-15T00:45:46;100292.50;;;1.02;72.78
76653;BME280;65563;45.970;12.680;2022-12-15T00:46:46;100296.25;;;0.99;72.75
76653;BME280;65563;45.970;12.680;2022-12-15T00:47:46;100295.41;;;0.89;72.87
76653;BME280;65563;45.970;12.680;2022-12-15T00:48:46;100306.44;;;0.92;73.02
76653;BME280;65563;45.970;12.680;2022-12-15T00:49:47;100305.16;;;0.87;72.93
76653;BME280;65563;45.970;12.680;2022-12-15T00:50:47;100301.31;;;0.71;73.48
76653;BME280;65563;45.970;12.680;2022-12-15T00:51:47;100299.28;;;0.85;73.28
76653;BME280;65563;45.970;12.680;2022-12-15T00:52:47;100302.16;;;0.82;73.08
76653;BME280;65563;45.970;12.680;2022-12-15T00:53:47;100305.16;;;0.87;72.69
76653;BME280;65563;45.970;12.680;2022-12-15T00:54:48;100309.03;;;0.83;72.70
76653;BME280;65563;45.970;12.680;2022-12-15T00:55:48;100316.03;;;0.73;72.31
76653;BME280;65563;45.970;12.680;2022-12-15T00:56:48;100314.38;;;0.71;72.76
76653;BME280;65563;45.970;12.680;2022-12-15T00:57:48;100316.03;;;0.73;73.13
76653;BME280;65563;45.970;12.680;2022-12-15T00:58:48;100318.94;;;0.89;72.44
76653;BME280;65563;45.970;12.680;2022-12-15T00:59:48;100316.59;;;1.05;71.69
76653;BME280;65563;45.970;12.680;2022-12-15T01:00:48;100316.19;;;1.00;71.11
76653;BME280;65563;45.970;12.680;2022-12-15T01:01:49;100310.97;;;1.00;71.43
76653;BME280;65563;45.970;12.680;2022-12-15T01:02:49;100310.41;;;1.06;71.03
76653;BME280;65563;45.970;12.680;2022-12-15T01:03:49;100318.66;;;0.92;71.93
76653;BME280;65563;45.970;12.680;2022-12-15T01:04:49;100321.03;;;0.95;72.12
76653;BME280;65563;45.970;12.680;2022-12-15T01:05:49;100327.75;;;1.07;70.78
76653;BME280;65563;45.970;12.680;2022-12-15T01:06:49;100326.66;;;1.00;71.53
76653;BME280;65563;45.970;12.680;2022-12-15T01:07:50;100320.03;;;0.96;71.36
76653;BME280;65563;45.970;12.680;2022-12-15T01:08:50;100323.19;;;0.90;71.39
76653;BME280;65563;45.970;12.680;2022-12-15T01:09:50;100321.41;;;0.90;71.35
76653;BME280;65563;45.970;12.680;2022-12-15T01:10:50;100326.50;;;0.92;71.04
76653;BME280;65563;45.970;12.680;2022-12-15T01:11:50;100334.06;;;0.85;71.30
76653;BME280;65563;45.970;12.680;2022-12-15T01:12:51;100335.16;;;0.83;70.42
76653;BME280;65563;45.970;12.680;2022-12-15T01:13:51;100329.13;;;0.82;70.67
76653;BME280;65563;45.970;12.680;2022-12-15T01:14:51;100324.41;;;0.66;70.64
76653;BME280;65563;45.970;12.680;2022-12-15T01:15:51;100325.50;;;0.74;71.04
76653;BME280;65563;45.970;12.680;2022-12-15T01:16:51;100321.41;;;0.81;70.63
76653;BME280;65563;45.970;12.680;2022-12-15T01:17:52;100328.81;;;0.66;71.35
76653;BME280;65563;45.970;12.680;2022-12-15T01:18:52;100324.84;;;0.71;70.55
76653;BME280;65563;45.970;12.680;2022-12-15T01:19:52;100325.25;;;0.77;70.22
76653;BME280;65563;45.970;12.680;2022-12-15T01:20:59;100321.69;;;0.87;70.21
76653;BME280;65563;45.970;12.680;2022-12-15T01:21:59;100318.09;;;0.79;70.75
76653;BME280;65563;45.970;12.680;2022-12-15T01:23:00;100318.09;;;0.79;70.84
76653;BME280;65563;45.970;12.680;2022-12-15T01:24:00;100327.31;;;0.73;71.11
76653;BME280;65563;45.970;12.680;2022-12-15T01:25:00;100331.44;;;0.76;70.63
76653;BME280;65563;45.970;12.680;2022-12-15T01:26:00;100330.38;;;0.88;70.67
76653;BME280;65563;45.970;12.680;2022-12-15T01:27:01;100330.91;;;0.82;70.04
76653;BME280;65563;45.970;12.680;2022-12-15T01:28:01;100325.97;;;0.88;69.67
76653;BME280;65563;45.970;12.680;2022-12-15T01:29:01;100331.03;;;0.90;70.12
76653;BME280;65563;45.970;12.680;2022-12-15T01:30:02;100336.13;;;0.82;70.04
76653;BME280;65563;45.970;12.680;2022-12-15T01:31:08;100333.38;;;0.83;70.38
76653;BME280;65563;45.970;12.680;2022-12-15T01:32:08;100335.03;;;0.84;70.13
76653;BME280;65563;45.970;12.680;2022-12-15T01:33:08;100346.72;;;0.90;70.00
76653;BME280;65563;45.970;12.680;2022-12-15T01:34:08;100343.56;;;0.96;69.76
76653;BME280;65563;45.970;12.680;2022-12-15T01:35:09;100350.44;;;0.97;69.50
76653;BME280;65563;45.970;12.680;2022-12-15T01:36:09;100351.41;;;0.86;69.58
76653;BME280;65563;45.970;12.680;2022-12-15T01:37:10;100349.47;;;0.98;69.82
76653;BME280;65563;45.970;12.680;2022-12-15T01:38:10;100351.56;;;1.04;69.26
76653;BME280;65563;45.970;12.680;2022-12-15T01:39:10;100351.44;;;1.06;68.98
76653;BME280;65563;45.970;12.680;2022-12-15T01:40:12;100356.91;;;0.93;68.47
76653;BME280;65563;45.970;12.680;2022-12-15T01:41:13;100357.97;;;0.81;68.95
76653;BME280;65563;45.970;12.680;2022-12-15T01:42:13;100347.13;;;0.76;69.84
76653;BME280;65563;45.970;12.680;2022-12-15T01:43:14;100359.94;;;0.88;70.35
76653;BME280;65563;45.970;12.680;2022-12-15T01:44:19;100362.66;;;0.77;70.30
76653;BME280;65563;45.970;12.680;2022-12-15T01:46:23;100362.81;;;0.85;69.96
76653;BME280;65563;45.970;12.680;2022-12-15T01:47:23;100364.91;;;1.01;69.65
76653;BME280;65563;45.970;12.680;2022-12-15T01:49:25;100366.69;;;1.01;69.89
76653;BME280;65563;45.970;12.680;2022-12-15T01:50:27;100359.66;;;1.01;69.48
76653;BME280;65563;45.970;12.680;2022-12-15T01:51:33;100368.63;;;1.18;69.12
76653;BME280;65563;45.970;12.680;2022-12-15T01:52:34;100371.38;;;1.07;69.36
76653;BME280;65563;45.970;12.680;2022-12-15T01:53:36;100375.09;;;1.14;68.96
76653;BME280;65563;45.970;12.680;2022-12-15T01:54:56;100374.00;;;1.16;68.91
76653;BME280;65563;45.970;12.680;2022-12-15T01:55:57;100377.72;;;1.14;68.76
76653;BME280;65563;45.970;12.680;2022-12-15T01:57:31;100367.13;;;1.35;68.18
76653;BME280;65563;45.970;12.680;2022-12-15T01:58:24;100373.03;;;1.17;68.45
76653;BME280;65563;45.970;12.680;2022-12-15T01:59:38;100370.16;;;1.21;68.82
76653;BME280;65563;45.970;12.680;2022-12-15T02:00:39;100371.13;;;1.19;68.49
76653;BME280;65563;45.970;12.680;2022-12-15T02:01:40;100366.13;;;1.26;68.50
76653;BME280;65563;45.970;12.680;2022-12-15T02:02:40;100369.44;;;1.09;68.55
76653;BME280;65563;45.970;12.680;2022-12-15T02:03:40;100372.06;;;0.99;69.39
76653;BME280;65563;45.970;12.680;2022-12-15T02:04:42;100373.69;;;0.90;69.86
76653;BME280;65563;45.970;12.680;2022-12-15T02:05:43;100376.31;;;0.90;70.21
76653;BME280;65563;45.970;12.680;2022-12-15T02:06:43;100376.88;;;1.04;69.85
76653;BME280;65563;45.970;12.680;2022-12-15T02:07:43;100383.50;;;1.17;69.70
76653;BME280;65563;45.970;12.680;2022-12-15T02:08:43;100386.09;;;1.17;69.14
76653;BME280;65563;45.970;12.680;2022-12-15T02:09:46;100389.81;;;1.15;69.42
76653;BME280;65563;45.970;12.680;2022-12-15T02:11:06;100389.97;;;1.13;69.00
76653;BME280;65563;45.970;12.680;2022-12-15T02:12:24;100381.41;;;1.11;69.52
76653;BME280;65563;45.970;12.680;2022-12-15T02:13:34;100381.16;;;1.14;69.65
76653;BME280;65563;45.970;12.680;2022-12-15T02:15:49;100384.03;;;1.21;70.02
76653;BME280;65563;45.970;12.680;2022-12-15T02:18:07;100393.56;;;1.12;69.92
76653;BME280;65563;45.970;12.680;2022-12-15T02:21:32;100392.16;;;1.18;69.20
76653;BME280;65563;45.970;12.680;2022-12-15T02:23:12;100391.75;;;1.32;69.68
76653;BME280;65563;45.970;12.680;2022-12-15T02:27:27;100392.03;;;1.39;68.77
76653;BME280;65563;45.970;12.680;2022-12-15T02:32:28;100383.50;;;1.27;68.80
76653;BME280;65563;45.970;12.680;2022-12-15T02:33:29;100378.56;;;1.34;69.32
76653;BME280;65563;45.970;12.680;2022-12-15T02:35:36;100385.56;;;1.24;68.73
76653;BME280;65563;45.970;12.680;2022-12-15T02:36:41;100383.91;;;1.23;68.94
76653;BME280;65563;45.970;12.680;2022-12-15T02:37:43;100388.03;;;1.06;68.79
76653;BME280;65563;45.970;12.680;2022-12-15T02:38:44;100382.94;;;1.04;69.42
76653;BME280;65563;45.970;12.680;2022-12-15T02:39:44;100384.88;;;1.02;69.42
76653;BME280;65563;45.970;12.680;2022-12-15T02:40:44;100382.25;;;1.02;69.40
76653;BME280;65563;45.970;12.680;2022-12-15T02:41:45;100387.47;;;0.92;68.82
76653;BME280;65563;45.970;12.680;2022-12-15T02:42:46;100389.63;;;0.87;69.43
76653;BME280;65563;45.970;12.680;2022-12-15T02:43:49;100392.84;;;1.01;69.09
76653;BME280;65563;45.970;12.680;2022-12-15T02:44:50;100396.28;;;1.11;68.41
76653;BME280;65563;45.970;12.680;2022-12-15T02:46:03;100395.22;;;1.23;67.70
76653;BME280;65563;45.970;12.680;2022-12-15T02:50:10;100399.16;;;0.98;67.98
76653;BME280;65563;45.970;12.680;2022-12-15T02:51:20;100394.09;;;1.06;67.82
76653;BME280;65563;45.970;12.680;2022-12-15T02:58:47;100424.59;;;0.86;68.56
76653;BME280;65563;45.970;12.680;2022-12-15T03:00:03;100417.44;;;0.98;68.20
76653;BME280;65563;45.970;12.680;2022-12-15T03:01:05;100413.34;;;0.95;67.88
76653;BME280;65563;45.970;12.680;2022-12-15T03:02:07;100416.06;;;0.94;68.42
76653;BME280;65563;45.970;12.680;2022-12-15T03:03:08;100416.34;;;0.91;68.18
76653;BME280;65563;45.970;12.680;2022-12-15T03:04:09;100418.00;;;1.02;68.00
76653;BME280;65563;45.970;12.680;2022-12-15T03:05:11;100411.28;;;1.09;67.31
76653;BME280;65563;45.970;12.680;2022-12-15T03:06:12;100415.41;;;1.11;67.46
76653;BME280;65563;45.970;12.680;2022-12-15T03:07:12;100420.09;;;1.17;66.93
76653;BME280;65563;45.970;12.680;2022-12-15T03:08:12;100424.38;;;1.18;66.49
76653;BME280;65563;45.970;12.680;2022-12-15T03:09:13;100418.47;;;1.16;67.01
76653;BME280;65563;45.970;12.680;2022-12-15T03:10:13;100421.06;;;1.07;67.22
76653;BME280;65563;45.970;12.680;2022-12-15T03:11:13;100420.78;;;1.00;67.85
76653;BME280;65563;45.970;12.680;2022-12-15T03:12:14;100425.75;;;1.13;67.60
76653;BME280;65563;45.970;12.680;2022-12-15T03:13:14;100432.38;;;1.17;66.80
76653;BME280;65563;45.970;12.680;2022-12-15T03:14:14;100433.72;;;1.11;67.15
76653;BME280;65563;45.970;12.680;2022-12-15T03:15:15;100430.44;;;1.09;67.33
76653;BME280;65563;45.970;12.680;2022-12-15T03:16:15;100430.00;;;1.14;67.53
76653;BME280;65563;45.970;12.680;2022-12-15T03:17:15;100436.38;;;1.31;67.19
76653;BME280;65563;45.970;12.680;2022-12-15T03:18:15;100431.53;;;1.36;66.75
76653;BME280;65563;45.970;12.680;2022-12-15T03:19:15;100433.63;;;1.42;66.24
76653;BME280;65563;45.970;12.680;2022-12-15T03:20:16;100430.03;;;1.24;66.64
76653;BME280;65563;45.970;12.680;2022-12-15T03:21:16;100419.97;;;1.19;66.74
76653;BME280;65563;45.970;12.680;2022-12-15T03:22:16;100424.81;;;1.24;67.34
76653;BME280;65563;45.970;12.680;2022-12-15T03:23:16;100429.34;;;1.31;67.22
76653;BME280;65563;45.970;12.680;2022-12-15T03:24:16;100423.44;;;1.39;67.06
76653;BME280;65563;45.970;12.680;2022-12-15T03:25:16;100429.34;;;1.41;67.12
76653;BME280;65563;45.970;12.680;2022-12-15T03:26:17;100427.13;;;1.46;67.06
76653;BME280;65563;45.970;12.680;2022-12-15T03:27:17;100435.13;;;1.54;67.18
76653;BME280;65563;45.970;12.680;2022-12-15T03:28:17;100434.31;;;1.44;67.00
76653;BME280;65563;45.970;12.680;2022-12-15T03:29:17;100438.97;;;1.50;65.46
76653;BME280;65563;45.970;12.680;2022-12-15T03:30:17;100447.25;;;1.55;65.73
76653;BME280;65563;45.970;12.680;2022-12-15T03:31:18;100440.22;;;1.56;65.53
76653;BME280;65563;45.970;12.680;2022-12-15T03:32:18;100446.97;;;1.49;66.01
76653;BME280;65563;45.970;12.680;2022-12-15T03:33:18;100450.81;;;1.54;65.90
76653;BME280;65563;45.970;12.680;2022-12-15T03:34:18;100445.47;;;1.56;66.50
76653;BME280;65563;45.970;12.680;2022-12-15T03:35:18;100455.41;;;1.62;66.45
76653;BME280;65563;45.970;12.680;2022-12-15T03:36:19;100449.19;;;1.63;66.08
76653;BME280;65563;45.970;12.680;2022-12-15T03:37:19;100451.38;;;1.67;66.06
76653;BME280;65563;45.970;12.680;2022-12-15T03:38:19;100454.41;;;1.63;66.33
76653;BME280;65563;45.970;12.680;2022-12-15T03:39:19;100452.22;;;1.58;66.42
76653;BME280;65563;45.970;12.680;2022-12-15T03:40:19;100446.72;;;1.52;66.85
76653;BME280;65563;45.970;12.680;2022-12-15T03:41:19;100439.25;;;1.66;66.17
76653;BME280;65563;45.970;12.680;2022-12-15T03:42:20;100437.47;;;1.67;65.82
76653;BME280;65563;45.970;12.680;2022-12-15T03:43:20;100438.84;;;1.61;66.17
76653;BME280;65563;45.970;12.680;2022-12-15T03:44:20;100439.81;;;1.60;66.19
76653;BME280;65563;45.970;12.680;2022-12-15T03:45:21;100438.16;;;1.69;65.33
76653;BME280;65563;45.970;12.680;2022-12-15T03:46:22;100447.13;;;1.66;66.04
76653;BME280;65563;45.970;12.680;2022-12-15T03:47:22;100450.44;;;1.59;65.57
76653;BME280;65563;45.970;12.680;2022-12-15T03:48:22;100452.63;;;1.63;65.51
76653;BME280;65563;45.970;12.680;2022-12-15T03:49:22;100452.34;;;1.66;66.19
76653;BME280;65563;45.970;12.680;2022-12-15T03:50:24;100456.06;;;1.74;65.84
76653;BME280;65563;45.970;12.680;2022-12-15T03:51:24;100458.69;;;1.74;65.77
76653;BME280;65563;45.970;12.680;2022-12-15T03:52:24;100455.78;;;1.77;66.29
76653;BME280;65563;45.970;12.680;2022-12-15T03:53:25;100460.31;;;1.84;65.91
76653;BME280;65563;45.970;12.680;2022-12-15T03:54:25;100454.16;;;1.76;65.90
76653;BME280;65563;45.970;12.680;2022-12-15T03:55:25;100456.06;;;1.74;66.23
76653;BME280;65563;45.970;12.680;2022-12-15T03:56:25;100465.56;;;1.65;66.77
76653;BME280;65563;45.970;12.680;2022-12-15T03:57:26;100462.00;;;1.66;66.41
76653;BME280;65563;45.970;12.680;2022-12-15T03:58:26;100460.59;;;1.72;66.19
76653;BME280;65563;45.970;12.680;2022-12-15T03:59:26;100464.06;;;1.62;66.34
76653;BME280;65563;45.970;12.680;2022-12-15T04:00:26;100460.59;;;1.72;66.66
76653;BME280;65563;45.970;12.680;2022-12-15T04:01:27;100459.22;;;1.67;66.64
76653;BME280;65563;45.970;12.680;2022-12-15T04:02:28;100450.13;;;1.72;66.86
76653;BME280;65563;45.970;12.680;2022-12-15T04:03:28;100450.28;;;1.60;67.15
76653;BME280;65563;45.970;12.680;2022-12-15T04:04:28;100448.22;;;1.74;66.67
76653;BME280;65563;45.970;12.680;2022-12-15T04:05:29;100444.22;;;1.70;66.56
76653;BME280;65563;45.970;12.680;2022-12-15T04:06:29;100449.03;;;1.74;66.82
76653;BME280;65563;45.970;12.680;2022-12-15T04:07:30;100448.34;;;1.82;66.59
76653;BME280;65563;45.970;12.680;2022-12-15T04:08:30;100448.75;;;1.77;66.50
76653;BME280;65563;45.970;12.680;2022-12-15T04:09:30;100450.13;;;1.72;66.73
76653;BME280;65563;45.970;12.680;2022-12-15T04:10:31;100454.16;;;1.76;66.77
76653;BME280;65563;45.970;12.680;2022-12-15T04:11:32;100456.75;;;1.66;67.00
76653;BME280;65563;45.970;12.680;2022-12-15T04:12:32;100451.38;;;1.58;66.97
76653;BME280;65563;45.970;12.680;2022-12-15T04:13:32;100462.69;;;1.58;67.30
76653;BME280;65563;45.970;12.680;2022-12-15T04:14:33;100458.66;;;1.54;67.14
76653;BME280;65563;45.970;12.680;2022-12-15T04:15:33;100462.53;;;1.60;67.85
76653;BME280;65563;45.970;12.680;2022-12-15T04:16:34;100460.75;;;1.51;67.76
76653;BME280;65563;45.970;12.680;2022-12-15T04:17:34;100461.84;;;1.58;68.03
76653;BME280;65563;45.970;12.680;2022-12-15T04:18:34;100468.47;;;1.52;68.11
76653;BME280;65563;45.970;12.680;2022-12-15T04:19:35;100470.94;;;1.54;67.67
76653;BME280;65563;45.970;12.680;2022-12-15T04:20:35;100483.91;;;1.55;67.95
76653;BME280;65563;45.970;12.680;2022-12-15T04:21:36;100477.00;;;1.54;67.61
76653;BME280;65563;45.970;12.680;2022-12-15T04:23:36;100484.28;;;1.51;67.80
76653;BME280;65563;45.970;12.680;2022-12-15T04:24:36;100487.06;;;1.49;67.77
76653;BME280;65563;45.970;12.680;2022-12-15T04:25:36;100489.66;;;1.39;68.61
76653;BME280;65563;45.970;12.680;2022-12-15T04:26:37;100484.31;;;1.41;68.64
76653;BME280;65563;45.970;12.680;2022-12-15T04:27:37;100494.22;;;1.37;69.30
76653;BME280;65563;45.970;12.680;2022-12-15T04:28:37;100488.53;;;1.23;69.69
76653;BME280;65563;45.970;12.680;2022-12-15T04:29:37;100493.22;;;1.29;69.02
76653;BME280;65563;45.970;12.680;2022-12-15T04:30:37;100487.44;;;1.25;68.52
76653;BME280;65563;45.970;12.680;2022-12-15T04:31:39;100483.16;;;1.24;68.53
76653;BME280;65563;45.970;12.680;2022-12-15T04:32:41;100480.69;;;1.32;68.30
76653;BME280;65563;45.970;12.680;2022-12-15T04:33:42;100482.88;;;1.17;68.81
76653;BME280;65563;45.970;12.680;2022-12-15T04:34:44;100480.97;;;1.19;68.79
76653;BME280;65563;45.970;12.680;2022-12-15T04:35:44;100477.94;;;1.24;68.69
76653;BME280;65563;45.970;12.680;2022-12-15T04:36:45;100477.38;;;1.21;69.07
76653;BME280;65563;45.970;12.680;2022-12-15T04:37:48;100483.84;;;1.16;68.97
76653;BME280;65563;45.970;12.680;2022-12-15T04:38:48;100489.03;;;1.07;69.30
76653;BME280;65563;45.970;12.680;2022-12-15T04:39:49;100484.13;;;1.13;68.35
76653;BME280;65563;45.970;12.680;2022-12-15T04:40:50;100482.03;;;1.07;68.91
76653;BME280;65563;45.970;12.680;2022-12-15T04:41:51;100482.72;;;1.09;69.14
76653;BME280;65563;45.970;12.680;2022-12-15T04:42:53;100480.09;;;1.00;69.32
76653;BME280;65563;45.970;12.680;2022-12-15T04:43:53;100481.31;;;1.05;69.07
76653;BME280;65563;45.970;12.680;2022-12-15T04:44:55;100485.44;;;0.98;69.71
76653;BME280;65563;45.970;12.680;2022-12-15T04:45:56;100487.53;;;1.04;69.01
76653;BME280;65563;45.970;12.680;2022-12-15T04:46:56;100499.72;;;0.94;68.98
76653;BME280;65563;45.970;12.680;2022-12-15T04:47:57;100492.41;;;0.78;69.98
76653;BME280;65563;45.970;12.680;2022-12-15T04:48:58;100497.75;;;0.77;70.01
76653;BME280;65563;45.970;12.680;2022-12-15T04:49:58;100501.06;;;0.79;69.87
76653;BME280;65563;45.970;12.680;2022-12-15T04:50:58;100502.72;;;0.80;69.90
76653;BME280;65563;45.970;12.680;2022-12-15T04:51:58;100501.94;;;0.89;69.50
76653;BME280;65563;45.970;12.680;2022-12-15T04:53:06;100500.00;;;0.91;69.50
76653;BME280;65563;45.970;12.680;2022-12-15T04:54:06;100504.09;;;0.84;69.66
76653;BME280;65563;45.970;12.680;2022-12-15T04:55:07;100500.91;;;0.70;70.13
76653;BME280;65563;45.970;12.680;2022-12-15T04:56:11;100501.19;;;0.77;69.97
76653;BME280;65563;45.970;12.680;2022-12-15T04:57:11;100501.75;;;0.81;69.87
76653;BME280;65563;45.970;12.680;2022-12-15T04:58:11;100496.25;;;0.84;69.68
76653;BME280;65563;45.970;12.680;2022-12-15T04:59:11;100490.44;;;0.70;69.88
76653;BME280;65563;45.970;12.680;2022-12-15T05:00:12;100494.31;;;0.76;69.51
76653;BME280;65563;45.970;12.680;2022-12-15T05:01:12;100489.31;;;0.63;70.09
76653;BME280;65563;45.970;12.680;2022-12-15T05:02:12;100490.25;;;0.62;70.27
76653;BME280;65563;45.970;12.680;2022-12-15T05:03:13;100489.94;;;0.56;70.33
76653;BME280;65563;45.970;12.680;2022-12-15T05:04:13;100485.13;;;0.51;70.52
76653;BME280;65563;45.970;12.680;2022-12-15T05:05:13;100488.03;;;0.58;70.50
76653;BME280;65563;45.970;12.680;2022-12-15T05:06:13;100492.00;;;0.52;70.94
76653;BME280;65563;45.970;12.680;2022-12-15T05:07:13;100487.72;;;0.51;70.79
76653;BME280;65563;45.970;12.680;2022-12-15T05:08:14;100495.72;;;0.50;70.87
76653;BME280;65563;45.970;12.680;2022-12-15T05:09:14;100499.84;;;0.52;71.10
76653;BME280;65563;45.970;12.680;2022-12-15T05:10:14;100494.50;;;0.54;70.94
76653;BME280;65563;45.970;12.680;2022-12-15T05:11:14;100499.84;;;0.52;70.95
76653;BME280;65563;45.970;12.680;2022-12-15T05:12:14;100506.16;;;0.50;71.11
76653;BME280;65563;45.970;12.680;2022-12-15T05:13:15;100505.09;;;0.62;70.41
76653;BME280;65563;45.970;12.680;2022-12-15T05:14:15;100511.88;;;0.64;69.96
76653;BME280;65563;45.970;12.680;2022-12-15T05:15:15;100500.66;;;0.53;70.81
76653;BME280;65563;45.970;12.680;2022-12-15T05:16:15;100507.09;;;0.48;70.82
76653;BME280;65563;45.970;12.680;2022-12-15T05:17:15;100507.19;;;0.37;71.54
76653;BME280;65563;45.970;12.680;2022-12-15T05:18:16;100505.78;;;0.33;71.64
76653;BME280;65563;45.970;12.680;2022-12-15T05:19:16;100517.56;;;0.28;72.08
76653;BME280;65563;45.970;12.680;2022-12-15T05:20:16;100515.97;;;0.15;72.89
76653;BME280;65563;45.970;12.680;2022-12-15T05:21:16;100518.72;;;0.14;72.70
76653;BME280;65563;45.970;12.680;2022-12-15T05:22:16;100520.06;;;0.08;73.12
76653;BME280;65563;45.970;12.680;2022-12-15T05:23:16;100522.78;;;0.07;73.38
76653;BME280;65563;45.970;12.680;2022-12-15T05:24:17;100528.31;;;0.13;73.33
76653;BME280;65563;45.970;12.680;2022-12-15T05:25:17;100529.22;;;0.23;72.88
76653;BME280;65563;45.970;12.680;2022-12-15T05:26:17;100533.56;;;0.34;72.45
76653;BME280;65563;45.970;12.680;2022-12-15T05:27:17;100525.28;;;0.50;72.31
76653;BME280;65563;45.970;12.680;2022-12-15T05:28:17;100524.75;;;0.56;72.40
76653;BME280;65563;45.970;12.680;2022-12-15T05:29:17;100522.41;;;0.53;72.60
76653;BME280;65563;45.970;12.680;2022-12-15T05:30:18;100529.47;;;0.41;72.57
76653;BME280;65563;45.970;12.680;2022-12-15T05:31:18;100534.63;;;0.53;72.26
76653;BME280;65563;45.970;12.680;2022-12-15T05:32:18;100527.09;;;0.59;72.00
76653;BME280;65563;45.970;12.680;2022-12-15T05:33:18;100524.06;;;0.54;72.03
76653;BME280;65563;45.970;12.680;2022-12-15T05:34:19;100523.56;;;0.70;71.53
76653;BME280;65563;45.970;12.680;2022-12-15T05:35:20;100515.41;;;0.84;71.31
76653;BME280;65563;45.970;12.680;2022-12-15T05:36:20;100515.22;;;0.76;71.50
76653;BME280;65563;45.970;12.680;2022-12-15T05:37:20;100515.47;;;0.73;71.65
76653;BME280;65563;45.970;12.680;2022-12-15T05:38:20;100508.50;;;0.83;71.93
76653;BME280;65563;45.970;12.680;2022-12-15T05:39:21;100510.25;;;0.73;72.30
76653;BME280;65563;45.970;12.680;2022-12-15T05:40:22;100511.91;;;0.74;72.03
76653;BME280;65563;45.970;12.680;2022-12-15T05:41:22;100517.25;;;0.73;72.61
76653;BME280;65563;45.970;12.680;2022-12-15T05:42:22;100516.84;;;0.67;72.40
76653;BME280;65563;45.970;12.680;2022-12-15T05:43:22;100517.25;;;0.73;72.92
76653;BME280;65563;45.970;12.680;2022-12-15T05:44:23;100524.28;;;0.72;72.65
76653;BME280;65563;45.970;12.680;2022-12-15T05:45:24;100524.38;;;0.61;73.11